sensor_id;sensor_type;location;lat;lon;timestamp;temperature;humidity
25877;DHT22;13692;47.480;19.216;2023-10-31T00:00:17;15.00;99.90
25877;DHT22;13692;47.480;19.216;2023-10-31T00:02:45;14.90;99.90
25877;DHT22;13692;47.480;19.216;2023-10-31T00:05:12;14.90;99.90
25877;DHT22;13692;47.480;19.216;2023-10-31T00:07:38;14.90;99.90
25877;DHT22;13692;47.480;19.216;2023-10-31T00:10:06;14.90;99.90
25877;DHT22;13692;47.480;19.216;2023-10-31T00:12:33;14.90;99.90
25877;DHT22;13692;47.480;19.216;2023-10-31T00:15:00;14.80;99.90
25877;DHT22;13692;47.480;19.216;2023-10-31T00:17:27;14.70;99.90
25877;DHT22;13692;47.480;19.216;2023-10-31T00:19:54;14.70;99.90
25877;DHT22;13692;47.480;19.216;2023-10-31T00:22:21;14.80;99.90
25877;DHT22;13692;47.480;19.216;2023-10-31T00:24:48;14.80;99.90
25877;DHT22;13692;47.480;19.216;2023-10-31T00:27:14;14.80;99.90
25877;DHT22;13692;47.480;19.216;2023-10-31T00:29:42;14.70;99.90
25877;DHT22;13692;47.480;19.216;2023-10-31T00:32:09;14.70;99.90
25877;DHT22;13692;47.480;19.216;2023-10-31T00:34:36;14.70;99.90
25877;DHT22;13692;47.480;19.216;2023-10-31T00:37:03;14.70;99.90
25877;DHT22;13692;47.480;19.216;2023-10-31T00:39:30;14.70;99.90
25877;DHT22;13692;47.480;19.216;2023-10-31T00:41:57;14.70;99.90
25877;DHT22;13692;47.480;19.216;2023-10-31T00:44:24;14.70;99.90
25877;DHT22;13692;47.480;19.216;2023-10-31T00:46:50;14.70;99.90
25877;DHT22;13692;47.480;19.216;2023-10-31T00:49:18;14.70;99.90
25877;DHT22;13692;47.480;19.216;2023-10-31T00:51:45;14.60;99.90
25877;DHT22;13692;47.480;19.216;2023-10-31T00:54:12;14.50;99.90
25877;DHT22;13692;47.480;19.216;2023-10-31T00:56:38;14.50;99.90
25877;DHT22;13692;47.480;19.216;2023-10-31T00:59:05;14.40;99.90
25877;DHT22;13692;47.480;19.216;2023-10-31T01:01:32;14.30;99.90
25877;DHT22;13692;47.480;19.216;2023-10-31T01:03:59;14.20;99.90
25877;DHT22;13692;47.480;19.216;2023-10-31T01:06:27;14.10;99.90
25877;DHT22;13692;47.480;19.216;2023-10-31T01:08:54;14.00;99.90
25877;DHT22;13692;47.480;19.216;2023-10-31T01:11:20;14.00;99.90
25877;DHT22;13692;47.480;19.216;2023-10-31T01:13:47;14.10;99.90
25877;DHT22;13692;47.480;19.216;2023-10-31T01:16:14;14.10;99.90
25877;DHT22;13692;47.480;19.216;2023-10-31T01:18:42;14.10;99.90
25877;DHT22;13692;47.480;19.216;2023-10-31T01:21:09;14.00;99.90
25877;DHT22;13692;47.480;19.216;2023-10-31T01:23:35;14.10;99.90
25877;DHT22;13692;47.480;19.216;2023-10-31T01:26:03;14.10;99.90
25877;DHT22;13692;47.480;19.216;2023-10-31T01:28:30;14.20;99.90
25877;DHT22;13692;47.480;19.216;2023-10-31T01:30:57;14.20;99.90
25877;DHT22;13692;47.480;19.216;2023-10-31T01:33:23;14.20;99.90
25877;DHT22;13692;47.480;19.216;2023-10-31T01:35:51;14.20;99.90
25877;DHT22;13692;47.480;19.216;2023-10-31T01:38:17;14.30;99.90
25877;DHT22;13692;47.480;19.216;2023-10-31T01:40:48;14.40;99.90
25877;DHT22;13692;47.480;19.216;2023-10-31T01:43:32;14.30;99.90
25877;DHT22;13692;47.480;19.216;2023-10-31T01:46:00;14.40;99.90
25877;DHT22;13692;47.480;19.216;2023-10-31T01:48:29;14.40;99.90
25877;DHT22;13692;47.480;19.216;2023-10-31T01:50:57;14.30;99.90
25877;DHT22;13692;47.480;19.216;2023-10-31T01:53:25;14.40;99.90
25877;DHT22;13692;47.480;19.216;2023-10-31T01:55:56;14.40;99.90
25877;DHT22;13692;47.480;19.216;2023-10-31T01:58:28;14.40;99.90
25877;DHT22;13692;47.480;19.216;2023-10-31T02:00:55;14.40;99.90
25877;DHT22;13692;47.480;19.216;2023-10-31T02:03:23;14.40;99.90
25877;DHT22;13692;47.480;19.216;2023-10-31T02:05:51;14.50;99.90
25877;DHT22;13692;47.480;19.216;2023-10-31T02:08:18;14.50;99.90
25877;DHT22;13692;47.480;19.216;2023-10-31T02:10:45;14.50;99.90
25877;DHT22;13692;47.480;19.216;2023-10-31T02:13:13;14.50;99.90
25877;DHT22;13692;47.480;19.216;2023-10-31T02:15:40;14.50;99.90
25877;DHT22;13692;47.480;19.216;2023-10-31T02:18:08;14.50;99.90
25877;DHT22;13692;47.480;19.216;2023-10-31T02:20:35;14.50;99.90
25877;DHT22;13692;47.480;19.216;2023-10-31T02:23:03;14.60;99.90
25877;DHT22;13692;47.480;19.216;2023-10-31T02:25:30;14.60;99.90
25877;DHT22;13692;47.480;19.216;2023-10-31T02:27:58;14.50;99.90
25877;DHT22;13692;47.480;19.216;2023-10-31T02:30:25;14.40;99.90
25877;DHT22;13692;47.480;19.216;2023-10-31T02:32:52;14.30;99.90
25877;DHT22;13692;47.480;19.216;2023-10-31T02:35:19;14.20;99.90
25877;DHT22;13692;47.480;19.216;2023-10-31T02:37:47;14.10;99.90
25877;DHT22;13692;47.480;19.216;2023-10-31T02:40:14;14.10;99.90
25877;DHT22;13692;47.480;19.216;2023-10-31T02:42:41;14.10;99.90
25877;DHT22;13692;47.480;19.216;2023-10-31T02:45:08;14.10;99.90
25877;DHT22;13692;47.480;19.216;2023-10-31T02:47:35;14.20;99.90
25877;DHT22;13692;47.480;19.216;2023-10-31T02:50:03;14.10;99.90
25877;DHT22;13692;47.480;19.216;2023-10-31T02:52:30;14.20;99.90
25877;DHT22;13692;47.480;19.216;2023-10-31T02:54:57;14.20;99.90
25877;DHT22;13692;47.480;19.216;2023-10-31T02:57:24;14.10;99.90
25877;DHT22;13692;47.480;19.216;2023-10-31T02:59:51;14.10;99.90
25877;DHT22;13692;47.480;19.216;2023-10-31T03:02:18;14.10;99.90
25877;DHT22;13692;47.480;19.216;2023-10-31T03:04:46;14.20;99.90
25877;DHT22;13692;47.480;19.216;2023-10-31T03:07:13;14.20;99.90
25877;DHT22;13692;47.480;19.216;2023-10-31T03:09:40;14.20;99.90
25877;DHT22;13692;47.480;19.216;2023-10-31T03:12:07;14.20;99.90
25877;DHT22;13692;47.480;19.216;2023-10-31T03:14:34;14.20;99.90
25877;DHT22;13692;47.480;19.216;2023-10-31T03:17:01;14.20;99.90
25877;DHT22;13692;47.480;19.216;2023-10-31T03:19:28;14.20;99.90
25877;DHT22;13692;47.480;19.216;2023-10-31T03:21:55;14.20;99.90
25877;DHT22;13692;47.480;19.216;2023-10-31T03:24:22;14.20;99.90
25877;DHT22;13692;47.480;19.216;2023-10-31T03:26:49;14.30;99.90
25877;DHT22;13692;47.480;19.216;2023-10-31T03:29:15;14.30;99.90
25877;DHT22;13692;47.480;19.216;2023-10-31T03:31:42;14.40;99.90
25877;DHT22;13692;47.480;19.216;2023-10-31T03:34:09;14.40;99.90
25877;DHT22;13692;47.480;19.216;2023-10-31T03:36:36;14.40;99.90
25877;DHT22;13692;47.480;19.216;2023-10-31T03:39:03;14.30;99.90
25877;DHT22;13692;47.480;19.216;2023-10-31T03:41:30;14.30;99.90
25877;DHT22;13692;47.480;19.216;2023-10-31T03:43:57;14.20;99.90
25877;DHT22;13692;47.480;19.216;2023-10-31T03:46:24;14.20;99.90
25877;DHT22;13692;47.480;19.216;2023-10-31T03:48:51;14.20;99.90
25877;DHT22;13692;47.480;19.216;2023-10-31T03:51:18;14.20;99.90
25877;DHT22;13692;47.480;19.216;2023-10-31T03:53:45;14.20;99.90
25877;DHT22;13692;47.480;19.216;2023-10-31T03:56:12;14.20;99.90
25877;DHT22;13692;47.480;19.216;2023-10-31T03:58:40;14.30;99.90
25877;DHT22;13692;47.480;19.216;2023-10-31T04:01:07;14.30;99.90
25877;DHT22;13692;47.480;19.216;2023-10-31T04:03:34;14.30;99.90
25877;DHT22;13692;47.480;19.216;2023-10-31T04:06:01;14.20;99.90
25877;DHT22;13692;47.480;19.216;2023-10-31T04:08:28;14.10;99.90
25877;DHT22;13692;47.480;19.216;2023-10-31T04:10:55;14.00;99.90
25877;DHT22;13692;47.480;19.216;2023-10-31T04:13:22;13.80;99.90
25877;DHT22;13692;47.480;19.216;2023-10-31T04:15:49;13.80;99.90
25877;DHT22;13692;47.480;19.216;2023-10-31T04:18:16;13.70;99.90
25877;DHT22;13692;47.480;19.216;2023-10-31T04:20:43;13.70;99.90
25877;DHT22;13692;47.480;19.216;2023-10-31T04:23:10;13.60;99.90
25877;DHT22;13692;47.480;19.216;2023-10-31T04:25:38;13.50;99.90
25877;DHT22;13692;47.480;19.216;2023-10-31T04:28:05;13.40;99.90
25877;DHT22;13692;47.480;19.216;2023-10-31T04:30:32;13.50;99.90
25877;DHT22;13692;47.480;19.216;2023-10-31T04:32:59;13.40;99.90
25877;DHT22;13692;47.480;19.216;2023-10-31T04:35:26;13.40;99.90
25877;DHT22;13692;47.480;19.216;2023-10-31T04:37:53;13.30;99.90
25877;DHT22;13692;47.480;19.216;2023-10-31T04:40:20;13.30;99.90
25877;DHT22;13692;47.480;19.216;2023-10-31T04:42:47;13.30;99.90
25877;DHT22;13692;47.480;19.216;2023-10-31T04:45:14;13.40;99.90
25877;DHT22;13692;47.480;19.216;2023-10-31T04:47:41;13.40;99.90
25877;DHT22;13692;47.480;19.216;2023-10-31T04:50:09;13.50;99.90
25877;DHT22;13692;47.480;19.216;2023-10-31T04:52:36;13.60;99.90
25877;DHT22;13692;47.480;19.216;2023-10-31T04:55:03;13.70;99.90
25877;DHT22;13692;47.480;19.216;2023-10-31T04:57:31;13.70;99.90
25877;DHT22;13692;47.480;19.216;2023-10-31T04:59:58;13.80;99.90
25877;DHT22;13692;47.480;19.216;2023-10-31T05:02:26;13.80;99.90
25877;DHT22;13692;47.480;19.216;2023-10-31T05:04:53;13.90;99.90
25877;DHT22;13692;47.480;19.216;2023-10-31T05:07:20;13.90;99.90
25877;DHT22;13692;47.480;19.216;2023-10-31T05:09:47;13.90;99.90
25877;DHT22;13692;47.480;19.216;2023-10-31T05:12:14;13.90;99.90
25877;DHT22;13692;47.480;19.216;2023-10-31T05:14:41;13.90;99.90
25877;DHT22;13692;47.480;19.216;2023-10-31T05:17:08;13.90;99.90
25877;DHT22;13692;47.480;19.216;2023-10-31T05:19:35;13.90;99.90
25877;DHT22;13692;47.480;19.216;2023-10-31T05:22:02;14.00;99.90
25877;DHT22;13692;47.480;19.216;2023-10-31T05:24:29;14.00;99.90
25877;DHT22;13692;47.480;19.216;2023-10-31T05:26:56;14.10;99.90
25877;DHT22;13692;47.480;19.216;2023-10-31T05:29:23;14.10;99.90
25877;DHT22;13692;47.480;19.216;2023-10-31T05:31:50;14.10;99.90
25877;DHT22;13692;47.480;19.216;2023-10-31T05:34:17;14.20;99.90
25877;DHT22;13692;47.480;19.216;2023-10-31T05:36:44;14.20;99.90
25877;DHT22;13692;47.480;19.216;2023-10-31T05:39:11;14.20;99.90
25877;DHT22;13692;47.480;19.216;2023-10-31T05:41:38;14.30;99.90
25877;DHT22;13692;47.480;19.216;2023-10-31T05:44:05;14.30;99.90
25877;DHT22;13692;47.480;19.216;2023-10-31T05:46:32;14.30;99.90
25877;DHT22;13692;47.480;19.216;2023-10-31T05:49:03;14.30;99.90
25877;DHT22;13692;47.480;19.216;2023-10-31T05:51:30;14.30;99.90
25877;DHT22;13692;47.480;19.216;2023-10-31T05:53:57;14.30;99.90
25877;DHT22;13692;47.480;19.216;2023-10-31T05:56:24;14.30;99.90
25877;DHT22;13692;47.480;19.216;2023-10-31T05:58:51;14.30;99.90
25877;DHT22;13692;47.480;19.216;2023-10-31T06:01:18;14.30;99.90
25877;DHT22;13692;47.480;19.216;2023-10-31T06:03:45;14.30;99.90
25877;DHT22;13692;47.480;19.216;2023-10-31T06:06:12;14.20;99.90
25877;DHT22;13692;47.480;19.216;2023-10-31T06:08:40;14.10;99.90
25877;DHT22;13692;47.480;19.216;2023-10-31T06:11:08;14.10;99.90
25877;DHT22;13692;47.480;19.216;2023-10-31T06:13:35;14.10;99.90
25877;DHT22;13692;47.480;19.216;2023-10-31T06:16:02;14.00;99.90
25877;DHT22;13692;47.480;19.216;2023-10-31T06:18:29;14.00;99.90
25877;DHT22;13692;47.480;19.216;2023-10-31T06:20:56;14.00;99.90
25877;DHT22;13692;47.480;19.216;2023-10-31T06:23:24;13.90;99.90
25877;DHT22;13692;47.480;19.216;2023-10-31T06:25:51;13.90;99.90
25877;DHT22;13692;47.480;19.216;2023-10-31T06:28:18;13.90;99.90
25877;DHT22;13692;47.480;19.216;2023-10-31T06:30:45;13.90;99.90
25877;DHT22;13692;47.480;19.216;2023-10-31T06:33:12;14.00;99.90
25877;DHT22;13692;47.480;19.216;2023-10-31T06:35:39;14.10;99.90
25877;DHT22;13692;47.480;19.216;2023-10-31T06:38:06;14.10;99.90
25877;DHT22;13692;47.480;19.216;2023-10-31T06:40:33;14.30;99.90
25877;DHT22;13692;47.480;19.216;2023-10-31T06:43:01;14.40;99.90
25877;DHT22;13692;47.480;19.216;2023-10-31T06:45:28;14.60;99.90
25877;DHT22;13692;47.480;19.216;2023-10-31T06:47:55;14.60;99.90
25877;DHT22;13692;47.480;19.216;2023-10-31T06:50:22;14.70;99.90
25877;DHT22;13692;47.480;19.216;2023-10-31T06:52:49;14.80;99.90
25877;DHT22;13692;47.480;19.216;2023-10-31T06:55:16;14.80;99.90
25877;DHT22;13692;47.480;19.216;2023-10-31T06:57:43;14.90;99.90
25877;DHT22;13692;47.480;19.216;2023-10-31T07:00:13;15.00;99.90
25877;DHT22;13692;47.480;19.216;2023-10-31T07:02:41;15.10;99.90
25877;DHT22;13692;47.480;19.216;2023-10-31T07:05:08;15.00;99.90
25877;DHT22;13692;47.480;19.216;2023-10-31T07:07:36;14.90;99.90
25877;DHT22;13692;47.480;19.216;2023-10-31T07:10:03;14.90;99.90
25877;DHT22;13692;47.480;19.216;2023-10-31T07:12:30;14.90;99.90
25877;DHT22;13692;47.480;19.216;2023-10-31T07:14:57;14.90;99.90
25877;DHT22;13692;47.480;19.216;2023-10-31T07:17:27;15.00;99.90
25877;DHT22;13692;47.480;19.216;2023-10-31T07:19:54;15.00;99.90
25877;DHT22;13692;47.480;19.216;2023-10-31T07:22:21;15.00;99.90
25877;DHT22;13692;47.480;19.216;2023-10-31T07:24:51;15.10;99.90
25877;DHT22;13692;47.480;19.216;2023-10-31T07:27:18;15.10;99.90
25877;DHT22;13692;47.480;19.216;2023-10-31T07:29:46;15.20;99.90
25877;DHT22;13692;47.480;19.216;2023-10-31T07:32:13;15.20;99.90
25877;DHT22;13692;47.480;19.216;2023-10-31T07:34:41;15.20;99.90
25877;DHT22;13692;47.480;19.216;2023-10-31T07:37:09;15.30;99.90
25877;DHT22;13692;47.480;19.216;2023-10-31T07:39:36;15.40;99.90
25877;DHT22;13692;47.480;19.216;2023-10-31T07:42:03;15.40;99.90
25877;DHT22;13692;47.480;19.216;2023-10-31T07:44:30;15.50;99.90
25877;DHT22;13692;47.480;19.216;2023-10-31T07:46:57;15.60;99.90
25877;DHT22;13692;47.480;19.216;2023-10-31T07:49:24;15.60;99.90
25877;DHT22;13692;47.480;19.216;2023-10-31T07:51:51;15.70;99.90
25877;DHT22;13692;47.480;19.216;2023-10-31T07:54:18;15.70;99.90
25877;DHT22;13692;47.480;19.216;2023-10-31T07:56:46;15.80;99.90
25877;DHT22;13692;47.480;19.216;2023-10-31T07:59:13;15.90;99.90
25877;DHT22;13692;47.480;19.216;2023-10-31T08:01:40;15.90;99.90
25877;DHT22;13692;47.480;19.216;2023-10-31T08:04:07;16.10;99.90
25877;DHT22;13692;47.480;19.216;2023-10-31T08:06:34;16.30;99.90
25877;DHT22;13692;47.480;19.216;2023-10-31T08:09:01;16.60;99.90
25877;DHT22;13692;47.480;19.216;2023-10-31T08:11:28;17.00;99.90
25877;DHT22;13692;47.480;19.216;2023-10-31T08:13:55;17.20;99.90
25877;DHT22;13692;47.480;19.216;2023-10-31T08:16:22;17.50;99.90
25877;DHT22;13692;47.480;19.216;2023-10-31T08:18:50;17.80;99.90
25877;DHT22;13692;47.480;19.216;2023-10-31T08:21:16;17.90;99.90
25877;DHT22;13692;47.480;19.216;2023-10-31T08:23:44;17.90;99.90
25877;DHT22;13692;47.480;19.216;2023-10-31T08:26:13;17.80;99.90
25877;DHT22;13692;47.480;19.216;2023-10-31T08:28:40;17.90;99.90
25877;DHT22;13692;47.480;19.216;2023-10-31T08:31:07;17.90;99.90
25877;DHT22;13692;47.480;19.216;2023-10-31T08:33:34;17.90;99.90
25877;DHT22;13692;47.480;19.216;2023-10-31T08:36:02;18.00;99.90
25877;DHT22;13692;47.480;19.216;2023-10-31T08:38:29;18.00;99.90
25877;DHT22;13692;47.480;19.216;2023-10-31T08:40:58;18.00;99.90
25877;DHT22;13692;47.480;19.216;2023-10-31T08:43:26;18.00;99.90
25877;DHT22;13692;47.480;19.216;2023-10-31T08:45:53;18.00;99.90
25877;DHT22;13692;47.480;19.216;2023-10-31T08:48:21;18.10;99.90
25877;DHT22;13692;47.480;19.216;2023-10-31T08:50:48;18.20;99.90
25877;DHT22;13692;47.480;19.216;2023-10-31T08:53:15;18.30;99.90
25877;DHT22;13692;47.480;19.216;2023-10-31T08:55:42;18.40;99.90
25877;DHT22;13692;47.480;19.216;2023-10-31T08:58:11;18.60;99.90
25877;DHT22;13692;47.480;19.216;2023-10-31T09:00:40;18.70;99.90
25877;DHT22;13692;47.480;19.216;2023-10-31T09:03:10;18.80;99.90
25877;DHT22;13692;47.480;19.216;2023-10-31T09:05:37;18.80;99.90
25877;DHT22;13692;47.480;19.216;2023-10-31T09:08:04;18.80;99.90
25877;DHT22;13692;47.480;19.216;2023-10-31T09:10:35;18.80;99.90
25877;DHT22;13692;47.480;19.216;2023-10-31T09:13:02;18.70;99.90
25877;DHT22;13692;47.480;19.216;2023-10-31T09:15:29;18.70;99.90
25877;DHT22;13692;47.480;19.216;2023-10-31T09:17:56;18.70;99.90
25877;DHT22;13692;47.480;19.216;2023-10-31T09:20:23;18.80;99.90
25877;DHT22;13692;47.480;19.216;2023-10-31T09:22:50;18.90;99.90
25877;DHT22;13692;47.480;19.216;2023-10-31T09:25:17;18.90;99.90
25877;DHT22;13692;47.480;19.216;2023-10-31T09:27:44;19.00;99.90
25877;DHT22;13692;47.480;19.216;2023-10-31T09:30:11;19.00;99.90
25877;DHT22;13692;47.480;19.216;2023-10-31T09:32:38;19.10;99.90
25877;DHT22;13692;47.480;19.216;2023-10-31T09:35:05;19.10;99.90
25877;DHT22;13692;47.480;19.216;2023-10-31T09:37:35;19.20;99.90
25877;DHT22;13692;47.480;19.216;2023-10-31T09:40:02;19.20;99.90
25877;DHT22;13692;47.480;19.216;2023-10-31T09:42:29;19.30;99.90
25877;DHT22;13692;47.480;19.216;2023-10-31T09:44:56;19.30;99.90
25877;DHT22;13692;47.480;19.216;2023-10-31T09:47:26;19.30;99.90
25877;DHT22;13692;47.480;19.216;2023-10-31T09:49:53;19.40;99.90
25877;DHT22;13692;47.480;19.216;2023-10-31T09:52:20;19.40;99.90
25877;DHT22;13692;47.480;19.216;2023-10-31T09:54:49;19.40;99.90
25877;DHT22;13692;47.480;19.216;2023-10-31T09:57:17;19.50;99.90
25877;DHT22;13692;47.480;19.216;2023-10-31T09:59:45;19.50;99.90
25877;DHT22;13692;47.480;19.216;2023-10-31T10:02:12;19.50;99.90
25877;DHT22;13692;47.480;19.216;2023-10-31T10:04:39;19.50;99.90
25877;DHT22;13692;47.480;19.216;2023-10-31T10:07:06;19.60;99.90
25877;DHT22;13692;47.480;19.216;2023-10-31T10:09:33;19.60;99.90
25877;DHT22;13692;47.480;19.216;2023-10-31T10:12:01;19.60;99.90
25877;DHT22;13692;47.480;19.216;2023-10-31T10:14:28;19.60;99.90
25877;DHT22;13692;47.480;19.216;2023-10-31T10:16:58;19.50;99.90
25877;DHT22;13692;47.480;19.216;2023-10-31T10:19:25;19.60;99.90
25877;DHT22;13692;47.480;19.216;2023-10-31T10:21:55;19.60;99.90
25877;DHT22;13692;47.480;19.216;2023-10-31T10:24:23;19.60;99.90
25877;DHT22;13692;47.480;19.216;2023-10-31T10:26:52;19.60;99.90
25877;DHT22;13692;47.480;19.216;2023-10-31T10:29:19;19.60;99.90
25877;DHT22;13692;47.480;19.216;2023-10-31T10:31:46;19.70;99.90
25877;DHT22;13692;47.480;19.216;2023-10-31T10:34:14;19.70;99.90
25877;DHT22;13692;47.480;19.216;2023-10-31T10:36:47;19.80;99.90
25877;DHT22;13692;47.480;19.216;2023-10-31T10:39:23;19.80;99.90
25877;DHT22;13692;47.480;19.216;2023-10-31T10:41:53;19.80;99.90
25877;DHT22;13692;47.480;19.216;2023-10-31T10:46:56;19.90;99.90
25877;DHT22;13692;47.480;19.216;2023-10-31T10:49:25;19.90;99.90
25877;DHT22;13692;47.480;19.216;2023-10-31T10:51:53;20.00;99.90
25877;DHT22;13692;47.480;19.216;2023-10-31T10:54:32;20.00;99.90
25877;DHT22;13692;47.480;19.216;2023-10-31T10:57:17;20.10;99.90
25877;DHT22;13692;47.480;19.216;2023-10-31T10:59:49;20.10;99.90
25877;DHT22;13692;47.480;19.216;2023-10-31T11:02:22;20.10;99.90
25877;DHT22;13692;47.480;19.216;2023-10-31T11:04:51;20.20;99.90
25877;DHT22;13692;47.480;19.216;2023-10-31T11:07:20;20.20;99.90
25877;DHT22;13692;47.480;19.216;2023-10-31T11:09:49;20.30;99.90
25877;DHT22;13692;47.480;19.216;2023-10-31T11:12:17;20.30;99.90
25877;DHT22;13692;47.480;19.216;2023-10-31T11:14:44;20.40;99.90
25877;DHT22;13692;47.480;19.216;2023-10-31T11:17:24;20.40;99.90
25877;DHT22;13692;47.480;19.216;2023-10-31T11:19:52;20.40;99.30
25877;DHT22;13692;47.480;19.216;2023-10-31T11:22:21;20.50;99.40
25877;DHT22;13692;47.480;19.216;2023-10-31T11:24:50;20.50;99.60
25877;DHT22;13692;47.480;19.216;2023-10-31T11:27:18;20.60;99.20
25877;DHT22;13692;47.480;19.216;2023-10-31T11:29:45;20.50;99.00
25877;DHT22;13692;47.480;19.216;2023-10-31T11:32:12;20.50;99.30
25877;DHT22;13692;47.480;19.216;2023-10-31T11:34:42;20.40;99.10
25877;DHT22;13692;47.480;19.216;2023-10-31T11:37:26;20.30;99.60
25877;DHT22;13692;47.480;19.216;2023-10-31T11:42:50;20.40;99.90
25877;DHT22;13692;47.480;19.216;2023-10-31T11:45:27;20.40;99.90
25877;DHT22;13692;47.480;19.216;2023-10-31T11:47:55;20.30;99.90
25877;DHT22;13692;47.480;19.216;2023-10-31T11:50:23;20.30;99.90
25877;DHT22;13692;47.480;19.216;2023-10-31T11:53:09;20.40;99.90
25877;DHT22;13692;47.480;19.216;2023-10-31T11:55:43;20.40;99.90
25877;DHT22;13692;47.480;19.216;2023-10-31T11:58:20;20.30;99.90
25877;DHT22;13692;47.480;19.216;2023-10-31T12:00:49;20.10;99.90
25877;DHT22;13692;47.480;19.216;2023-10-31T12:03:17;20.00;99.90
25877;DHT22;13692;47.480;19.216;2023-10-31T12:05:56;20.00;99.90
25877;DHT22;13692;47.480;19.216;2023-10-31T12:08:30;19.90;99.90
25877;DHT22;13692;47.480;19.216;2023-10-31T12:14:00;19.60;99.90
25877;DHT22;13692;47.480;19.216;2023-10-31T12:16:33;19.60;99.90
25877;DHT22;13692;47.480;19.216;2023-10-31T12:19:03;19.50;99.90
25877;DHT22;13692;47.480;19.216;2023-10-31T12:21:49;19.40;99.90
25877;DHT22;13692;47.480;19.216;2023-10-31T12:24:18;19.30;99.90
25877;DHT22;13692;47.480;19.216;2023-10-31T12:26:45;19.30;99.90
25877;DHT22;13692;47.480;19.216;2023-10-31T12:34:17;19.00;99.90
25877;DHT22;13692;47.480;19.216;2023-10-31T12:36:46;18.80;99.90
25877;DHT22;13692;47.480;19.216;2023-10-31T12:39:15;18.30;99.90
25877;DHT22;13692;47.480;19.216;2023-10-31T12:41:43;17.70;99.90
25877;DHT22;13692;47.480;19.216;2023-10-31T12:44:11;17.20;99.90
25877;DHT22;13692;47.480;19.216;2023-10-31T12:46:41;16.90;99.90
25877;DHT22;13692;47.480;19.216;2023-10-31T12:49:12;16.70;99.90
25877;DHT22;13692;47.480;19.216;2023-10-31T12:52:02;16.60;99.90
25877;DHT22;13692;47.480;19.216;2023-10-31T12:54:33;16.60;99.90
25877;DHT22;13692;47.480;19.216;2023-10-31T12:57:07;16.50;99.90
25877;DHT22;13692;47.480;19.216;2023-10-31T12:59:36;16.40;99.90
25877;DHT22;13692;47.480;19.216;2023-10-31T13:02:05;16.40;99.90
25877;DHT22;13692;47.480;19.216;2023-10-31T13:04:33;16.30;99.90
25877;DHT22;13692;47.480;19.216;2023-10-31T13:07:03;16.30;99.90
25877;DHT22;13692;47.480;19.216;2023-10-31T13:09:32;16.20;99.90
25877;DHT22;13692;47.480;19.216;2023-10-31T13:12:06;16.10;99.90
25877;DHT22;13692;47.480;19.216;2023-10-31T13:14:34;16.10;99.90
25877;DHT22;13692;47.480;19.216;2023-10-31T13:17:01;16.10;99.90
25877;DHT22;13692;47.480;19.216;2023-10-31T13:19:30;16.10;99.90
25877;DHT22;13692;47.480;19.216;2023-10-31T13:21:57;16.10;99.90
25877;DHT22;13692;47.480;19.216;2023-10-31T13:24:24;16.00;99.90
25877;DHT22;13692;47.480;19.216;2023-10-31T13:26:51;16.00;99.90
25877;DHT22;13692;47.480;19.216;2023-10-31T13:29:20;16.00;99.90
25877;DHT22;13692;47.480;19.216;2023-10-31T13:31:48;16.00;99.90
25877;DHT22;13692;47.480;19.216;2023-10-31T13:34:15;15.80;99.90
25877;DHT22;13692;47.480;19.216;2023-10-31T13:36:42;15.70;99.90
25877;DHT22;13692;47.480;19.216;2023-10-31T13:39:11;15.70;99.90
25877;DHT22;13692;47.480;19.216;2023-10-31T13:41:38;15.60;99.90
25877;DHT22;13692;47.480;19.216;2023-10-31T13:44:05;15.60;99.90
25877;DHT22;13692;47.480;19.216;2023-10-31T13:46:33;15.50;99.90
25877;DHT22;13692;47.480;19.216;2023-10-31T13:49:00;15.50;99.90
25877;DHT22;13692;47.480;19.216;2023-10-31T13:51:27;15.50;99.90
25877;DHT22;13692;47.480;19.216;2023-10-31T13:53:54;15.40;99.90
25877;DHT22;13692;47.480;19.216;2023-10-31T13:56:21;15.30;99.90
25877;DHT22;13692;47.480;19.216;2023-10-31T13:58:48;15.20;99.90
25877;DHT22;13692;47.480;19.216;2023-10-31T14:01:15;15.10;99.90
25877;DHT22;13692;47.480;19.216;2023-10-31T14:03:42;15.00;99.90
25877;DHT22;13692;47.480;19.216;2023-10-31T14:06:12;15.00;99.90
25877;DHT22;13692;47.480;19.216;2023-10-31T14:08:39;15.00;99.90
25877;DHT22;13692;47.480;19.216;2023-10-31T14:11:06;15.00;99.90
25877;DHT22;13692;47.480;19.216;2023-10-31T14:13:37;15.00;99.90
25877;DHT22;13692;47.480;19.216;2023-10-31T14:16:06;15.00;99.90
25877;DHT22;13692;47.480;19.216;2023-10-31T14:18:34;15.00;99.90
25877;DHT22;13692;47.480;19.216;2023-10-31T14:21:00;14.90;99.90
25877;DHT22;13692;47.480;19.216;2023-10-31T14:23:27;14.70;99.90
25877;DHT22;13692;47.480;19.216;2023-10-31T14:25:54;14.60;99.90
25877;DHT22;13692;47.480;19.216;2023-10-31T14:28:21;14.60;99.90
25877;DHT22;13692;47.480;19.216;2023-10-31T14:30:48;14.60;99.90
25877;DHT22;13692;47.480;19.216;2023-10-31T14:33:15;14.50;99.90
25877;DHT22;13692;47.480;19.216;2023-10-31T14:35:42;14.50;99.90
25877;DHT22;13692;47.480;19.216;2023-10-31T14:38:09;14.50;99.90
25877;DHT22;13692;47.480;19.216;2023-10-31T14:40:36;14.50;99.90
25877;DHT22;13692;47.480;19.216;2023-10-31T14:43:03;14.50;99.90
25877;DHT22;13692;47.480;19.216;2023-10-31T14:45:30;14.50;99.90
25877;DHT22;13692;47.480;19.216;2023-10-31T14:47:57;14.50;99.90
25877;DHT22;13692;47.480;19.216;2023-10-31T14:50:24;14.40;99.90
25877;DHT22;13692;47.480;19.216;2023-10-31T14:52:51;14.40;99.90
25877;DHT22;13692;47.480;19.216;2023-10-31T14:55:18;14.40;99.90
25877;DHT22;13692;47.480;19.216;2023-10-31T14:57:45;14.40;99.90
25877;DHT22;13692;47.480;19.216;2023-10-31T15:00:13;14.40;99.90
25877;DHT22;13692;47.480;19.216;2023-10-31T15:02:40;14.40;99.90
25877;DHT22;13692;47.480;19.216;2023-10-31T15:05:07;14.40;99.90
25877;DHT22;13692;47.480;19.216;2023-10-31T15:07:35;14.40;99.90
25877;DHT22;13692;47.480;19.216;2023-10-31T15:10:02;14.30;99.90
25877;DHT22;13692;47.480;19.216;2023-10-31T15:12:30;14.30;99.90
25877;DHT22;13692;47.480;19.216;2023-10-31T15:14:56;14.20;99.90
25877;DHT22;13692;47.480;19.216;2023-10-31T15:17:23;14.20;99.90
25877;DHT22;13692;47.480;19.216;2023-10-31T15:19:50;14.10;99.90
25877;DHT22;13692;47.480;19.216;2023-10-31T15:22:17;14.10;99.90
25877;DHT22;13692;47.480;19.216;2023-10-31T15:24:44;14.10;99.90
25877;DHT22;13692;47.480;19.216;2023-10-31T15:27:11;14.00;99.90
25877;DHT22;13692;47.480;19.216;2023-10-31T15:29:41;14.00;99.90
25877;DHT22;13692;47.480;19.216;2023-10-31T15:32:08;14.00;99.90